Helas — C4AZ2 — position and weather

sailwx.info

Track history (hours):
 
Tides and Currents Weather Stations Pressure Air Temp Water Temp Dewpoint Dewpoint Depression Visibility Wind Speed Wind Dir Waves Ship Positions

Helas

Last reported at 2016-Dec-03 05:32 UTC. Time now 2016-Dec-05 18:40 UTC.
Position N 49°43' W 003°21'.

Length 89 m; draft 5.6 m.

Type: Cargo ship. MMSI: 210031000.

Date/timePositionNaut miles runAvg speedWind from/ knotsBaromVisibWave heightAir tempDewpointWater temp
2016-Dec-03 05:32N 49°43' W 003°21'10 9.9
2016-Dec-03 04:33N 49°49' W 003°10'1110.9
2016-Dec-03 03:34N 49°56' W 002°57'4210.4
2016-Dec-02 23:34N 50°09' W 001°55'7 7.2
2016-Dec-02 22:34N 50°11' W 001°44'7 6.6
2016-Dec-02 21:33N 50°13' W 001°35'7 6.7
2016-Dec-02 20:33N 50°15' W 001°25'31 9.8
2016-Dec-02 17:20N 50°24' W 000°38'911.7
2016-Dec-02 16:33N 50°27' W 000°24'1111.3
2016-Dec-02 15:34N 50°30' W 000°07'1110.9
2016-Dec-02 14:33N 50°33' E 000°09'1110.4
2016-Dec-02 13:31N 50°37' E 000°26'37 9.2
2016-Dec-02 09:33N 50°57' E 001°14'1212.0
2016-Dec-02 08:33N 51°05' E 001°28'1312.5
2016-Dec-02 07:33N 51°13' E 001°44'1110.8
2016-Dec-02 06:33N 51°22' E 001°53'9 9.4
2016-Dec-02 05:33N 51°30' E 002°01'9 8.6
2016-Dec-02 04:33N 51°36' E 002°10'8 8.1
2016-Dec-02 03:33N 51°42' E 002°19'65 8.7
2016-Dec-01 20:04N 52°22' E 003°44'5 8.8
2016-Dec-01 19:30N 52°23' E 003°52'8 8.4
2016-Dec-01 18:32N 52°26' E 004°04'8 7.9
2016-Dec-01 17:33N 52°27' E 004°17'7 6.9
2016-Dec-01 16:34N 52°29' E 004°28'5 4.8
2016-Dec-01 15:34N 52°28' E 004°36'1 1.3
2016-Dec-01 14:33N 52°28' E 004°38'0 0.0
2016-Dec-01 12:33N 52°28' E 004°38'0 0.0
2016-Dec-01 11:33N 52°28' E 004°38'0 0.0
2016-Dec-01 10:33N 52°28' E 004°38'0 0.0
2016-Dec-01 09:33N 52°28' E 004°38'0 0.0
2016-Dec-01 08:33N 52°28' E 004°38'0 0.0
2016-Dec-01 07:33N 52°28' E 004°38'0 0.0
2016-Dec-01 06:33N 52°28' E 004°38'0 0.0
2016-Dec-01 05:33N 52°28' E 004°38'0 0.0
2016-Dec-01 04:33N 52°28' E 004°38'0 0.0
2016-Dec-01 03:33N 52°28' E 004°38'0 0.0
2016-Dec-01 02:30N 52°28' E 004°38'0 0.0
2016-Dec-01 01:33N 52°28' E 004°38'0 0.0
2016-Dec-01 00:33N 52°28' E 004°38'0 0.0
2016-Nov-30 23:33N 52°28' E 004°38'0 0.0
2016-Nov-30 22:33N 52°28' E 004°38'0 0.0
2016-Nov-30 21:30N 52°28' E 004°38'0 0.0
2016-Nov-30 20:33N 52°28' E 004°38'0 0.0
2016-Nov-30 18:32N 52°28' E 004°38'0 0.0
2016-Nov-30 17:32N 52°28' E 004°38'0 0.0
2016-Nov-30 16:32N 52°28' E 004°38'0 0.0
2016-Nov-30 15:32N 52°28' E 004°38'0 0.0
2016-Nov-30 14:32N 52°28' E 004°38'0 0.0
2016-Nov-30 13:32N 52°28' E 004°38'0 0.0
2016-Nov-30 12:32N 52°28' E 004°38'0 0.0
2016-Nov-30 11:32N 52°28' E 004°38'0 0.0
2016-Nov-30 10:32N 52°28' E 004°38'0 0.0
2016-Nov-30 09:32N 52°28' E 004°38'0 0.0
2016-Nov-30 08:32N 52°28' E 004°38'0 0.0
2016-Nov-30 07:32N 52°28' E 004°38'0 0.0
2016-Nov-30 06:32N 52°28' E 004°38'1 1.0
2016-Nov-30 05:33N 52°28' E 004°36'0 0.4
2016-Nov-30 04:33N 52°28' E 004°36'0 0.0
2016-Nov-30 03:30N 52°28' E 004°36'0 0.0
2016-Nov-30 02:33N 52°28' E 004°36'0 0.0
2016-Nov-30 01:33N 52°28' E 004°36'0 0.0
2016-Nov-30 00:33N 52°28' E 004°36'0 0.0
2016-Nov-29 23:33N 52°28' E 004°36'0 0.0
2016-Nov-29 22:33N 52°28' E 004°36'0 0.0
2016-Nov-29 21:33N 52°28' E 004°36'0 0.0
2016-Nov-29 20:33N 52°28' E 004°36'0 0.0
2016-Nov-29 19:33N 52°28' E 004°36'0 0.0
2016-Nov-29 18:33N 52°28' E 004°36'0 0.0
2016-Nov-29 17:33N 52°28' E 004°36'0 0.0
2016-Nov-29 16:33N 52°28' E 004°36'0 0.0
2016-Nov-29 15:33N 52°28' E 004°36'0 0.1
2016-Nov-29 14:33N 52°28' E 004°36'0 0.0
2016-Nov-29 13:33N 52°28' E 004°36'0 0.0
2016-Nov-29 12:33N 52°28' E 004°36'0 0.0
2016-Nov-29 11:33N 52°28' E 004°36'0 0.0
2016-Nov-29 10:32N 52°28' E 004°36'0 0.0
2016-Nov-29 09:32N 52°28' E 004°36'0 0.0
2016-Nov-29 08:32N 52°28' E 004°36'0 0.0
2016-Nov-29 07:32N 52°28' E 004°36'0 0.0
2016-Nov-29 06:32N 52°28' E 004°36'0 0.0
2016-Nov-29 05:32N 52°28' E 004°36'0 0.0
2016-Nov-29 04:32N 52°28' E 004°36'0 0.0
2016-Nov-29 03:32N 52°28' E 004°36'0 0.0
2016-Nov-29 02:32N 52°28' E 004°36'0 0.0
2016-Nov-29 01:32N 52°28' E 004°36'0 0.0
2016-Nov-29 00:32N 52°28' E 004°36'0 0.0
2016-Nov-28 23:32N 52°28' E 004°36'0 0.0
2016-Nov-28 22:32N 52°28' E 004°36'0 0.0
2016-Nov-28 21:32N 52°28' E 004°36'0 0.0
2016-Nov-28 20:32N 52°28' E 004°36'0 0.0
2016-Nov-28 19:32N 52°28' E 004°36'0 0.0
2016-Nov-28 18:32N 52°28' E 004°36'0 0.0
2016-Nov-28 17:32N 52°28' E 004°36'0 0.0
2016-Nov-28 16:32N 52°28' E 004°36'0 0.0
2016-Nov-28 15:32N 52°28' E 004°36'0 0.0
2016-Nov-28 14:32N 52°28' E 004°36'0 0.1
2016-Nov-28 13:32N 52°28' E 004°36'0 0.1
2016-Nov-28 12:32N 52°28' E 004°36'0 0.0
2016-Nov-28 11:32N 52°28' E 004°36'2 1.8
2016-Nov-28 10:34N 52°28' E 004°34'8 7.8
2016-Nov-28 09:33N 52°27' E 004°21'7 7.0
2016-Nov-28 08:33N 52°27' E 004°09'2 1.6
2016-Nov-28 07:26N 52°27' E 004°06'0 0.0
2016-Nov-28 06:23N 52°27' E 004°06'0 0.1
2016-Nov-28 05:04N 52°27' E 004°06'1 1.8
2016-Nov-28 04:33N 52°27' E 004°05'4 3.7
2016-Nov-28 03:33N 52°26' E 003°59'5 4.7
2016-Nov-28 02:31N 52°26' E 003°51'57 6.9
2016-Nov-27 18:18N 51°49' E 002°41'6 6.6
2016-Nov-27 17:27N 51°44' E 002°36'6 6.6
2016-Nov-27 16:33N 51°39' E 002°30'8 7.7
2016-Nov-27 15:32N 51°33' E 002°22'8 8.0
2016-Nov-27 14:33N 51°27' E 002°15'9 8.7
2016-Nov-27 13:33N 51°19' E 002°08'9 9.0
2016-Nov-27 12:33N 51°12' E 001°59'10 9.6
2016-Nov-27 11:33N 51°06' E 001°47'1010.4
2016-Nov-27 10:33N 50°59' E 001°36'72 7.8
2016-Nov-27 01:17N 50°18' E 000°03'5 6.8
2016-Nov-27 00:32N 50°16' W 000°05'7 6.7
2016-Nov-26 23:33N 50°15' W 000°15'32 8.0
2016-Nov-26 19:33N 50°06' W 001°03'1010.4
2016-Nov-26 18:33N 50°04' W 001°19'1010.3
2016-Nov-26 17:34N 50°01' W 001°34'1010.1
2016-Nov-26 16:33N 49°58' W 001°49'9 8.9
2016-Nov-26 15:33N 49°56' W 002°03'118 6.5
2016-Nov-25 21:32N 48°50' W 004°33'5 4.9
2016-Nov-25 20:33N 48°49' W 004°40'4 4.1
2016-Nov-25 19:33N 48°47' W 004°46'4 3.7
2016-Nov-25 18:33N 48°46' W 004°51'4 3.8
2016-Nov-25 17:33N 48°46' W 004°57'4 4.0
2016-Nov-25 16:33N 48°44' W 005°02'5 4.6
2016-Nov-25 15:33N 48°41' W 005°08'5 5.2
2016-Nov-25 14:33N 48°38' W 005°14'6 5.8
2016-Nov-25 13:33N 48°33' W 005°20'6 6.3
2016-Nov-25 12:33N 48°28' W 005°24'10 8.1
2016-Nov-25 11:15N 48°18' W 005°23'21 7.9
2016-Nov-25 08:33N 47°59' W 005°06'9 9.4
2016-Nov-25 07:33N 47°55' W 004°54'10 9.6
2016-Nov-25 06:33N 47°49' W 004°42'21 6.9
2016-Nov-25 03:33N 47°38' W 004°17'10 4.5
2016-Nov-25 01:14N 47°32' W 004°04'1 0.0
2016-Nov-23 13:33N 47°33' W 004°05'10 1.9
2016-Nov-23 08:19N 47°30' W 004°19'  
Track history (hours):
 
Tides and Currents Weather Stations Pressure Air Temp Water Temp Dewpoint Dewpoint Depression Visibility Wind Speed Wind Dir Waves Ship Positions

Helas

Last reported at 2016-Dec-03 05:32 UTC. Time now 2016-Dec-05 18:40 UTC.
Position N 49°43' W 003°21'.

Length 89 m; draft 5.6 m.

Type: Cargo ship. MMSI: 210031000.

Date/timePositionNaut miles runAvg speedWind from/ knotsBaromVisibWave heightAir tempDewpointWater temp
2016-Dec-03 05:32N 49°43' W 003°21'10 9.9
2016-Dec-03 04:33N 49°49' W 003°10'1110.9
2016-Dec-03 03:34N 49°56' W 002°57'4210.4
2016-Dec-02 23:34N 50°09' W 001°55'7 7.2
2016-Dec-02 22:34N 50°11' W 001°44'7 6.6
2016-Dec-02 21:33N 50°13' W 001°35'7 6.7
2016-Dec-02 20:33N 50°15' W 001°25'31 9.8
2016-Dec-02 17:20N 50°24' W 000°38'911.7
2016-Dec-02 16:33N 50°27' W 000°24'1111.3
2016-Dec-02 15:34N 50°30' W 000°07'1110.9
2016-Dec-02 14:33N 50°33' E 000°09'1110.4
2016-Dec-02 13:31N 50°37' E 000°26'37 9.2
2016-Dec-02 09:33N 50°57' E 001°14'1212.0
2016-Dec-02 08:33N 51°05' E 001°28'1312.5
2016-Dec-02 07:33N 51°13' E 001°44'1110.8
2016-Dec-02 06:33N 51°22' E 001°53'9 9.4
2016-Dec-02 05:33N 51°30' E 002°01'9 8.6
2016-Dec-02 04:33N 51°36' E 002°10'8 8.1
2016-Dec-02 03:33N 51°42' E 002°19'65 8.7
2016-Dec-01 20:04N 52°22' E 003°44'5 8.8
2016-Dec-01 19:30N 52°23' E 003°52'8 8.4
2016-Dec-01 18:32N 52°26' E 004°04'8 7.9
2016-Dec-01 17:33N 52°27' E 004°17'7 6.9
2016-Dec-01 16:34N 52°29' E 004°28'5 4.8
2016-Dec-01 15:34N 52°28' E 004°36'1 1.3
2016-Dec-01 14:33N 52°28' E 004°38'0 0.0
2016-Dec-01 12:33N 52°28' E 004°38'0 0.0
2016-Dec-01 11:33N 52°28' E 004°38'0 0.0
2016-Dec-01 10:33N 52°28' E 004°38'0 0.0
2016-Dec-01 09:33N 52°28' E 004°38'0 0.0
2016-Dec-01 08:33N 52°28' E 004°38'0 0.0
2016-Dec-01 07:33N 52°28' E 004°38'0 0.0
2016-Dec-01 06:33N 52°28' E 004°38'0 0.0
2016-Dec-01 05:33N 52°28' E 004°38'0 0.0
2016-Dec-01 04:33N 52°28' E 004°38'0 0.0
2016-Dec-01 03:33N 52°28' E 004°38'0 0.0
2016-Dec-01 02:30N 52°28' E 004°38'0 0.0
2016-Dec-01 01:33N 52°28' E 004°38'0 0.0
2016-Dec-01 00:33N 52°28' E 004°38'0 0.0
2016-Nov-30 23:33N 52°28' E 004°38'0 0.0
2016-Nov-30 22:33N 52°28' E 004°38'0 0.0
2016-Nov-30 21:30N 52°28' E 004°38'0 0.0
2016-Nov-30 20:33N 52°28' E 004°38'0 0.0
2016-Nov-30 18:32N 52°28' E 004°38'0 0.0
2016-Nov-30 17:32N 52°28' E 004°38'0 0.0
2016-Nov-30 16:32N 52°28' E 004°38'0 0.0
2016-Nov-30 15:32N 52°28' E 004°38'0 0.0
2016-Nov-30 14:32N 52°28' E 004°38'0 0.0
2016-Nov-30 13:32N 52°28' E 004°38'0 0.0
2016-Nov-30 12:32N 52°28' E 004°38'0 0.0
2016-Nov-30 11:32N 52°28' E 004°38'0 0.0
2016-Nov-30 10:32N 52°28' E 004°38'0 0.0
2016-Nov-30 09:32N 52°28' E 004°38'0 0.0
2016-Nov-30 08:32N 52°28' E 004°38'0 0.0
2016-Nov-30 07:32N 52°28' E 004°38'0 0.0
2016-Nov-30 06:32N 52°28' E 004°38'1 1.0
2016-Nov-30 05:33N 52°28' E 004°36'0 0.4
2016-Nov-30 04:33N 52°28' E 004°36'0 0.0
2016-Nov-30 03:30N 52°28' E 004°36'0 0.0
2016-Nov-30 02:33N 52°28' E 004°36'0 0.0
2016-Nov-30 01:33N 52°28' E 004°36'0 0.0
2016-Nov-30 00:33N 52°28' E 004°36'0 0.0
2016-Nov-29 23:33N 52°28' E 004°36'0 0.0
2016-Nov-29 22:33N 52°28' E 004°36'0 0.0
2016-Nov-29 21:33N 52°28' E 004°36'0 0.0
2016-Nov-29 20:33N 52°28' E 004°36'0 0.0
2016-Nov-29 19:33N 52°28' E 004°36'0 0.0
2016-Nov-29 18:33N 52°28' E 004°36'0 0.0
2016-Nov-29 17:33N 52°28' E 004°36'0 0.0
2016-Nov-29 16:33N 52°28' E 004°36'0 0.0
2016-Nov-29 15:33N 52°28' E 004°36'0 0.1
2016-Nov-29 14:33N 52°28' E 004°36'0 0.0
2016-Nov-29 13:33N 52°28' E 004°36'0 0.0
2016-Nov-29 12:33N 52°28' E 004°36'0 0.0
2016-Nov-29 11:33N 52°28' E 004°36'0 0.0
2016-Nov-29 10:32N 52°28' E 004°36'0 0.0
2016-Nov-29 09:32N 52°28' E 004°36'0 0.0
2016-Nov-29 08:32N 52°28' E 004°36'0 0.0
2016-Nov-29 07:32N 52°28' E 004°36'0 0.0
2016-Nov-29 06:32N 52°28' E 004°36'0 0.0
2016-Nov-29 05:32N 52°28' E 004°36'0 0.0
2016-Nov-29 04:32N 52°28' E 004°36'0 0.0
2016-Nov-29 03:32N 52°28' E 004°36'0 0.0
2016-Nov-29 02:32N 52°28' E 004°36'0 0.0
2016-Nov-29 01:32N 52°28' E 004°36'0 0.0
2016-Nov-29 00:32N 52°28' E 004°36'0 0.0
2016-Nov-28 23:32N 52°28' E 004°36'0 0.0
2016-Nov-28 22:32N 52°28' E 004°36'0 0.0
2016-Nov-28 21:32N 52°28' E 004°36'0 0.0
2016-Nov-28 20:32N 52°28' E 004°36'0 0.0
2016-Nov-28 19:32N 52°28' E 004°36'0 0.0
2016-Nov-28 18:32N 52°28' E 004°36'0 0.0
2016-Nov-28 17:32N 52°28' E 004°36'0 0.0
2016-Nov-28 16:32N 52°28' E 004°36'0 0.0
2016-Nov-28 15:32N 52°28' E 004°36'0 0.0
2016-Nov-28 14:32N 52°28' E 004°36'0 0.1
2016-Nov-28 13:32N 52°28' E 004°36'0 0.1
2016-Nov-28 12:32N 52°28' E 004°36'0 0.0
2016-Nov-28 11:32N 52°28' E 004°36'2 1.8
2016-Nov-28 10:34N 52°28' E 004°34'8 7.8
2016-Nov-28 09:33N 52°27' E 004°21'7 7.0
2016-Nov-28 08:33N 52°27' E 004°09'2 1.6
2016-Nov-28 07:26N 52°27' E 004°06'0 0.0
2016-Nov-28 06:23N 52°27' E 004°06'0 0.1
2016-Nov-28 05:04N 52°27' E 004°06'1 1.8
2016-Nov-28 04:33N 52°27' E 004°05'4 3.7
2016-Nov-28 03:33N 52°26' E 003°59'5 4.7
2016-Nov-28 02:31N 52°26' E 003°51'57 6.9
2016-Nov-27 18:18N 51°49' E 002°41'6 6.6
2016-Nov-27 17:27N 51°44' E 002°36'6 6.6
2016-Nov-27 16:33N 51°39' E 002°30'8 7.7
2016-Nov-27 15:32N 51°33' E 002°22'8 8.0
2016-Nov-27 14:33N 51°27' E 002°15'9 8.7
2016-Nov-27 13:33N 51°19' E 002°08'9 9.0
2016-Nov-27 12:33N 51°12' E 001°59'10 9.6
2016-Nov-27 11:33N 51°06' E 001°47'1010.4
2016-Nov-27 10:33N 50°59' E 001°36'72 7.8
2016-Nov-27 01:17N 50°18' E 000°03'5 6.8
2016-Nov-27 00:32N 50°16' W 000°05'7 6.7
2016-Nov-26 23:33N 50°15' W 000°15'32 8.0
2016-Nov-26 19:33N 50°06' W 001°03'1010.4
2016-Nov-26 18:33N 50°04' W 001°19'1010.3
2016-Nov-26 17:34N 50°01' W 001°34'1010.1
2016-Nov-26 16:33N 49°58' W 001°49'9 8.9
2016-Nov-26 15:33N 49°56' W 002°03'118 6.5
2016-Nov-25 21:32N 48°50' W 004°33'5 4.9
2016-Nov-25 20:33N 48°49' W 004°40'4 4.1
2016-Nov-25 19:33N 48°47' W 004°46'4 3.7
2016-Nov-25 18:33N 48°46' W 004°51'4 3.8
2016-Nov-25 17:33N 48°46' W 004°57'4 4.0
2016-Nov-25 16:33N 48°44' W 005°02'5 4.6
2016-Nov-25 15:33N 48°41' W 005°08'5 5.2
2016-Nov-25 14:33N 48°38' W 005°14'6 5.8
2016-Nov-25 13:33N 48°33' W 005°20'6 6.3
2016-Nov-25 12:33N 48°28' W 005°24'10 8.1
2016-Nov-25 11:15N 48°18' W 005°23'21 7.9
2016-Nov-25 08:33N 47°59' W 005°06'9 9.4
2016-Nov-25 07:33N 47°55' W 004°54'10 9.6
2016-Nov-25 06:33N 47°49' W 004°42'21 6.9
2016-Nov-25 03:33N 47°38' W 004°17'10 4.5
2016-Nov-25 01:14N 47°32' W 004°04'1 0.0
2016-Nov-23 13:33N 47°33' W 004°05'10 1.9
2016-Nov-23 08:19N 47°30' W 004°19'  

Dump ship's entire track history